Time;durP1;ratioP1;P1;durP2;ratioP2;P2;SDS_P1;SDS_P2;PMS_P1;PMS_P2;Temp;Humidity;BMP_temperature;BMP_pressure;BME280_temperature;BME280_humidity;BME280_pressure;Samples;Min_cycle;Max_cycle;Signal;HPM_P1;HPM_P2
2023/11/21 00:02:13;;;;;;;31.93;13.70;;;8.90;99.90;;;;;;5051414;28;20891;-69
2023/11/21 00:04:39;;;;;;;36.63;14.50;;;8.80;99.90;;;;;;5051434;28;20392;-70
2023/11/21 00:07:05;;;;;;;25.50;15.30;;;8.70;99.90;;;;;;5051300;28;20481;-70
2023/11/21 00:09:32;;;;;;;28.15;14.00;;;8.70;99.90;;;;;;5051397;28;20385;-70
2023/11/21 00:11:59;;;;;;;22.08;11.70;;;8.70;99.90;;;;;;5050970;28;20878;-70
2023/11/21 00:14:25;;;;;;;25.40;11.40;;;8.80;99.90;;;;;;5051065;28;20397;-70
2023/11/21 00:16:50;;;;;;;23.10;11.87;;;8.80;99.90;;;;;;5051110;28;20509;-70
2023/11/21 00:19:16;;;;;;;17.67;10.00;;;9.00;99.90;;;;;;5049995;28;20398;-70
2023/11/21 00:21:44;;;;;;;20.00;9.38;;;9.40;98.70;;;;;;5051147;28;20400;-70
2023/11/21 00:24:10;;;;;;;18.23;9.27;;;9.60;89.70;;;;;;5050986;28;20382;-71
2023/11/21 00:26:37;;;;;;;22.05;10.50;;;9.60;90.80;;;;;;5051173;28;20469;-71
2023/11/21 00:29:03;;;;;;;18.00;9.70;;;9.60;91.10;;;;;;5050800;28;20411;-70
2023/11/21 00:31:30;;;;;;;18.42;9.77;;;9.70;89.70;;;;;;5050990;28;20859;-72
2023/11/21 00:33:56;;;;;;;17.27;9.15;;;9.70;88.70;;;;;;5050837;28;20444;-71
2023/11/21 00:36:22;;;;;;;20.60;9.90;;;9.80;86.10;;;;;;5050941;28;20748;-71
2023/11/21 00:38:48;;;;;;;20.10;9.37;;;9.90;84.20;;;;;;5050834;28;20382;-73
2023/11/21 00:41:13;;;;;;;15.88;9.25;;;9.90;83.20;;;;;;5050989;28;20425;-72
2023/11/21 00:43:39;;;;;;;25.60;10.45;;;9.90;84.00;;;;;;5050957;28;20811;-71
2023/11/21 00:46:08;;;;;;;20.52;9.15;;;9.90;85.50;;;;;;5050821;28;20397;-70
2023/11/21 00:48:34;;;;;;;21.90;9.80;;;9.90;84.90;;;;;;5050966;28;20868;-71
2023/11/21 00:51:00;;;;;;;21.80;9.77;;;10.00;84.60;;;;;;5050611;28;20385;-70
2023/11/21 00:53:25;;;;;;;22.40;10.20;;;9.90;84.50;;;;;;5050763;28;20844;-72
2023/11/21 00:55:57;;;;;;;22.53;11.30;;;9.80;85.70;;;;;;5049241;28;20440;-70
2023/11/21 00:58:24;;;;;;;23.58;10.40;;;9.60;90.50;;;;;;5050688;28;20925;-70
2023/11/21 01:00:50;;;;;;;26.80;12.18;;;9.50;93.80;;;;;;5050358;28;20494;-70
2023/11/21 01:03:15;;;;;;;26.67;11.80;;;9.50;97.30;;;;;;5049138;28;20428;-71
2023/11/21 01:05:41;;;;;;;29.02;12.35;;;9.40;96.20;;;;;;5050558;28;20374;-70
2023/11/21 01:08:06;;;;;;;29.55;14.25;;;9.20;98.40;;;;;;5050537;28;20382;-70
2023/11/21 01:10:34;;;;;;;24.85;12.02;;;9.00;99.40;;;;;;5050186;28;20373;-71
2023/11/21 01:12:59;;;;;;;21.27;11.20;;;8.90;99.90;;;;;;5049989;28;20394;-71
2023/11/21 01:15:25;;;;;;;21.57;11.60;;;8.70;99.90;;;;;;5050466;28;20396;-70
2023/11/21 01:17:51;;;;;;;24.92;12.10;;;8.60;99.90;;;;;;5049211;28;20396;-71
2023/11/21 01:20:17;;;;;;;32.00;12.48;;;8.50;99.90;;;;;;5050194;28;20910;-71
2023/11/21 01:22:43;;;;;;;25.37;11.90;;;8.50;99.90;;;;;;5050351;28;20465;-71
2023/11/21 01:25:10;;;;;;;25.80;12.27;;;8.40;99.90;;;;;;5050299;28;20386;-71
2023/11/21 01:27:36;;;;;;;22.45;11.40;;;8.30;99.90;;;;;;5049923;28;20385;-72
2023/11/21 01:30:03;;;;;;;26.25;11.98;;;8.20;99.90;;;;;;5050068;28;20924;-72
2023/11/21 01:32:29;;;;;;;28.38;12.60;;;8.10;99.90;;;;;;5050045;28;20428;-70
2023/11/21 01:34:57;;;;;;;25.55;13.20;;;8.10;99.90;;;;;;5050166;28;20405;-71
2023/11/21 01:37:24;;;;;;;37.15;15.05;;;8.00;99.90;;;;;;5048967;28;20484;-71
2023/11/21 01:39:49;;;;;;;23.73;12.87;;;7.80;99.90;;;;;;5050054;28;20806;-69
2023/11/21 01:42:15;;;;;;;29.63;13.17;;;7.80;99.90;;;;;;5050440;28;20385;-70
2023/11/21 01:44:40;;;;;;;28.73;13.30;;;7.90;99.90;;;;;;5060022;28;20377;-72
2023/11/21 01:47:08;;;;;;;34.37;16.03;;;7.90;99.90;;;;;;5070638;28;20385;-72
2023/11/21 01:49:34;;;;;;;33.45;13.75;;;7.90;99.90;;;;;;5069597;28;20386;-73
2023/11/21 01:52:00;;;;;;;35.77;17.00;;;7.90;99.90;;;;;;5065992;28;20473;-71
2023/11/21 01:54:25;;;;;;;32.20;15.10;;;8.00;99.90;;;;;;5053787;28;20421;-70
2023/11/21 01:56:51;;;;;;;30.50;16.23;;;8.00;99.90;;;;;;5054098;28;20464;-71
2023/11/21 01:59:21;;;;;;;32.78;16.40;;;8.00;99.90;;;;;;5053487;28;20846;-68
2023/11/21 02:01:47;;;;;;;23.98;13.07;;;8.10;99.90;;;;;;5054048;28;20902;-71
2023/11/21 02:04:13;;;;;;;26.53;13.20;;;8.10;99.90;;;;;;5053912;28;20421;-71
2023/11/21 02:06:39;;;;;;;23.35;13.05;;;8.20;99.90;;;;;;5053697;28;20390;-70
2023/11/21 02:09:04;;;;;;;30.45;13.20;;;8.20;99.90;;;;;;5053703;28;20400;-70
2023/11/21 02:11:30;;;;;;;23.48;13.15;;;8.30;99.90;;;;;;5053731;28;20469;-71
2023/11/21 02:14:00;;;;;;;28.55;11.93;;;8.30;99.90;;;;;;5054031;28;20446;-72
2023/11/21 02:16:26;;;;;;;24.20;12.02;;;8.40;99.90;;;;;;5053698;28;20389;-72
2023/11/21 02:18:52;;;;;;;24.52;13.02;;;8.40;99.90;;;;;;5053770;28;20412;-72
2023/11/21 02:21:19;;;;;;;25.50;12.40;;;8.50;99.90;;;;;;5053921;28;20890;-72
2023/11/21 02:23:46;;;;;;;33.03;12.88;;;8.50;99.90;;;;;;5053628;28;20432;-72
2023/11/21 02:26:12;;;;;;;25.88;12.63;;;8.60;99.90;;;;;;5054108;28;20408;-72
2023/11/21 02:28:38;;;;;;;22.80;12.70;;;8.60;99.90;;;;;;5054125;28;20830;-72
2023/11/21 02:31:05;;;;;;;25.33;12.35;;;8.60;99.90;;;;;;5053321;28;20400;-72
2023/11/21 02:33:34;;;;;;;23.50;12.40;;;8.70;99.90;;;;;;5053740;28;20392;-72
2023/11/21 02:36:00;;;;;;;24.02;13.27;;;8.70;99.90;;;;;;5053404;28;20386;-71
2023/11/21 02:38:26;;;;;;;26.90;14.40;;;8.70;99.90;;;;;;5053730;28;20386;-72
2023/11/21 02:40:51;;;;;;;28.97;13.87;;;8.70;99.90;;;;;;5053102;28;20480;-72
2023/11/21 02:43:17;;;;;;;28.77;15.13;;;8.70;99.90;;;;;;5053346;28;20385;-71
2023/11/21 02:45:43;;;;;;;26.90;13.33;;;8.70;99.90;;;;;;5053268;28;20369;-71
2023/11/21 02:48:08;;;;;;;23.10;12.17;;;8.70;99.90;;;;;;5053343;28;20382;-71
2023/11/21 02:50:35;;;;;;;28.47;13.20;;;8.80;99.90;;;;;;5052781;28;20389;-74
2023/11/21 02:53:01;;;;;;;27.35;12.32;;;8.80;99.90;;;;;;5053483;28;20381;-72
2023/11/21 02:55:27;;;;;;;21.77;11.80;;;8.80;99.90;;;;;;5052971;28;20389;-71
2023/11/21 02:57:53;;;;;;;21.25;12.00;;;8.80;99.90;;;;;;5053043;28;20385;-71
2023/11/21 03:00:19;;;;;;;20.50;12.77;;;8.80;99.90;;;;;;5052634;28;20401;-72
2023/11/21 03:02:45;;;;;;;29.23;13.80;;;8.90;99.90;;;;;;5051595;28;20389;-72
2023/11/21 03:05:11;;;;;;;27.45;12.90;;;8.90;99.90;;;;;;5052718;28;20443;-72
2023/11/21 03:07:38;;;;;;;27.73;14.25;;;8.90;99.90;;;;;;5052837;28;20946;-71
2023/11/21 03:10:04;;;;;;;29.73;12.88;;;8.90;99.90;;;;;;5052826;28;20389;-72
2023/11/21 03:12:30;;;;;;;26.38;13.70;;;8.90;99.90;;;;;;5053060;28;20842;-70
2023/11/21 03:14:55;;;;;;;24.35;13.05;;;8.90;99.90;;;;;;5052731;28;20478;-72
2023/11/21 03:17:21;;;;;;;29.07;13.90;;;8.90;99.90;;;;;;5053003;28;20478;-71
2023/11/21 03:19:47;;;;;;;31.98;14.07;;;9.00;99.90;;;;;;5052273;28;20405;-72
2023/11/21 03:22:13;;;;;;;29.55;14.30;;;8.90;99.90;;;;;;5052638;28;20385;-72
2023/11/21 03:24:38;;;;;;;36.22;16.60;;;8.90;99.90;;;;;;5053401;28;20373;-72
2023/11/21 03:27:04;;;;;;;32.47;16.87;;;8.90;99.90;;;;;;5052959;28;20403;-72
2023/11/21 03:29:30;;;;;;;37.33;16.05;;;8.80;99.90;;;;;;5052216;28;20393;-71
2023/11/21 03:31:56;;;;;;;29.45;14.98;;;8.90;99.90;;;;;;5052257;28;20412;-73
2023/11/21 03:34:27;;;;;;;29.97;14.20;;;8.80;99.90;;;;;;5052264;28;20404;-72
2023/11/21 03:36:53;;;;;;;28.48;14.50;;;8.90;99.90;;;;;;5050755;28;20424;-72
2023/11/21 03:39:20;;;;;;;32.17;15.50;;;8.90;99.90;;;;;;5051784;28;20402;-72
2023/11/21 03:41:46;;;;;;;24.20;14.20;;;8.90;99.90;;;;;;5052162;28;20397;-73
2023/11/21 03:44:11;;;;;;;30.90;14.13;;;9.00;99.90;;;;;;5052023;28;20381;-72
2023/11/21 03:46:37;;;;;;;28.88;14.50;;;9.00;99.90;;;;;;5050791;28;20393;-71
2023/11/21 03:49:03;;;;;;;33.88;15.32;;;9.10;99.90;;;;;;5052038;28;20823;-72
2023/11/21 03:51:28;;;;;;;30.33;13.95;;;9.50;99.20;;;;;;5051954;28;20766;-72
2023/11/21 03:53:54;;;;;;;26.07;12.73;;;9.60;94.40;;;;;;5052093;28;20739;-72
2023/11/21 03:56:21;;;;;;;32.10;15.17;;;9.70;90.00;;;;;;5052037;28;20413;-72
2023/11/21 03:58:48;;;;;;;28.30;15.13;;;9.50;89.60;;;;;;5051987;28;20464;-73
2023/11/21 04:01:24;;;;;;;37.28;16.45;;;9.40;93.20;;;;;;5051542;28;20970;-72
2023/11/21 04:03:50;;;;;;;33.73;18.60;;;9.30;93.70;;;;;;5051774;28;20447;-73
2023/11/21 04:06:17;;;;;;;35.45;16.52;;;9.20;95.40;;;;;;5051779;28;20447;-71
2023/11/21 04:08:44;;;;;;;34.65;17.30;;;9.10;96.90;;;;;;5051818;28;20391;-71
2023/11/21 04:11:11;;;;;;;44.30;21.48;;;9.00;99.00;;;;;;5051411;28;20385;-72
2023/11/21 04:13:38;;;;;;;39.67;19.17;;;9.00;99.90;;;;;;5051094;28;20432;-72
2023/11/21 04:16:05;;;;;;;36.08;17.80;;;8.90;99.90;;;;;;5051416;28;20428;-71
2023/11/21 04:18:30;;;;;;;32.38;17.20;;;9.00;99.90;;;;;;5051323;28;20397;-72
2023/11/21 04:20:56;;;;;;;35.27;17.37;;;9.00;99.90;;;;;;5050924;28;20475;-73
2023/11/21 04:23:21;;;;;;;30.83;18.25;;;9.10;99.90;;;;;;5051166;28;20836;-71
2023/11/21 04:25:47;;;;;;;37.92;17.90;;;9.00;99.90;;;;;;5051268;28;20373;-70
2023/11/21 04:28:13;;;;;;;30.90;16.33;;;9.00;99.90;;;;;;5051517;28;20473;-71
2023/11/21 04:30:39;;;;;;;41.03;17.92;;;9.10;99.90;;;;;;5049767;28;20396;-72
2023/11/21 04:33:05;;;;;;;31.25;16.58;;;9.10;99.90;;;;;;5051405;28;20397;-73
2023/11/21 04:35:30;;;;;;;32.80;16.07;;;9.10;99.90;;;;;;5051401;28;20748;-72
2023/11/21 04:37:57;;;;;;;33.40;16.07;;;9.10;99.90;;;;;;5051916;28;20392;-72
2023/11/21 04:40:22;;;;;;;32.05;16.88;;;9.10;99.90;;;;;;5052375;28;20406;-72
2023/11/21 04:42:48;;;;;;;32.40;15.80;;;9.10;99.90;;;;;;5061257;28;20374;-71
2023/11/21 04:45:14;;;;;;;36.93;17.20;;;9.10;99.90;;;;;;5074776;28;20504;-71
2023/11/21 04:47:39;;;;;;;28.63;15.93;;;9.00;99.90;;;;;;5064881;28;20488;-72
2023/11/21 04:50:05;;;;;;;39.50;17.60;;;9.00;99.90;;;;;;5051029;28;20377;-72
2023/11/21 04:52:33;;;;;;;35.28;16.00;;;9.00;99.90;;;;;;5051034;28;20396;-72
2023/11/21 04:55:00;;;;;;;36.17;17.27;;;8.90;99.90;;;;;;5050969;28;20393;-72
2023/11/21 04:57:28;;;;;;;37.78;18.25;;;8.90;99.90;;;;;;5050729;28;20389;-71
2023/11/21 04:59:54;;;;;;;41.60;19.52;;;8.90;99.90;;;;;;5050736;28;20539;-70
2023/11/21 05:02:20;;;;;;;33.17;17.67;;;8.90;99.90;;;;;;5049868;28;20427;-70
2023/11/21 05:04:46;;;;;;;34.35;17.40;;;8.80;99.90;;;;;;5051250;28;20374;-71
2023/11/21 05:07:12;;;;;;;33.45;17.98;;;8.90;99.90;;;;;;5050946;28;20392;-72
2023/11/21 05:09:43;;;;;;;31.02;16.42;;;8.90;99.90;;;;;;5050830;28;20392;-72
2023/11/21 05:12:09;;;;;;;32.30;16.95;;;9.00;99.90;;;;;;5050980;28;20392;-71
2023/11/21 05:14:35;;;;;;;32.30;17.02;;;9.00;99.90;;;;;;5049642;28;20397;-73
2023/11/21 05:17:01;;;;;;;32.72;17.00;;;9.20;99.90;;;;;;5053226;28;20880;-73
2023/11/21 05:19:27;;;;;;;33.88;17.42;;;9.20;99.90;;;;;;5053755;28;20401;-73
2023/11/21 05:21:52;;;;;;;39.33;19.63;;;9.20;99.90;;;;;;5053670;28;20385;-70
2023/11/21 05:24:18;;;;;;;34.73;17.80;;;9.20;99.90;;;;;;5050839;28;20461;-71
2023/11/21 05:26:43;;;;;;;31.38;16.70;;;9.20;99.90;;;;;;5050979;28;20386;-71
2023/11/21 05:29:10;;;;;;;34.95;17.00;;;9.20;99.90;;;;;;5051351;28;20388;-72
2023/11/21 05:31:36;;;;;;;32.65;17.15;;;9.30;99.90;;;;;;5052681;28;20386;-70
2023/11/21 05:34:04;;;;;;;32.33;16.63;;;9.30;99.90;;;;;;5060667;28;20459;-72
2023/11/21 05:36:31;;;;;;;33.85;18.65;;;9.30;99.90;;;;;;5059743;28;20413;-70
2023/11/21 05:38:56;;;;;;;41.00;19.55;;;9.30;99.90;;;;;;5055616;28;20393;-72
2023/11/21 05:41:22;;;;;;;42.37;19.90;;;9.50;99.10;;;;;;5052862;28;20427;-70
2023/11/21 05:43:48;;;;;;;39.22;21.05;;;9.40;95.90;;;;;;5051138;28;20492;-71
2023/11/21 05:46:13;;;;;;;45.78;21.27;;;9.40;96.70;;;;;;5058601;28;20394;-71
2023/11/21 05:48:39;;;;;;;46.63;22.33;;;9.40;95.30;;;;;;5071831;28;20395;-70
2023/11/21 05:51:08;;;;;;;44.40;21.52;;;9.60;94.60;;;;;;5073217;28;20401;-70
2023/11/21 05:53:34;;;;;;;47.55;22.35;;;9.60;93.10;;;;;;5073746;28;20446;-71
2023/11/21 05:56:00;;;;;;;41.28;22.02;;;9.50;94.80;;;;;;5072614;28;20365;-71
2023/11/21 05:58:26;;;;;;;46.03;22.15;;;9.50;96.70;;;;;;5071884;28;20382;-71
2023/11/21 06:00:51;;;;;;;46.57;20.90;;;9.70;94.50;;;;;;5072126;28;20432;-71
2023/11/21 06:03:17;;;;;;;43.08;21.33;;;10.00;85.90;;;;;;5072690;28;20414;-70
2023/11/21 06:05:43;;;;;;;40.47;20.60;;;10.10;83.90;;;;;;5071208;28;20366;-72
2023/11/21 06:08:10;;;;;;;47.03;23.15;;;10.10;82.90;;;;;;5072637;28;20377;-71
2023/11/21 06:10:36;;;;;;;51.35;24.52;;;10.00;84.90;;;;;;5071752;28;20449;-70
2023/11/21 06:13:03;;;;;;;47.33;24.08;;;9.80;86.60;;;;;;5070461;28;20397;-70
2023/11/21 06:15:29;;;;;;;45.30;23.30;;;9.70;88.60;;;;;;5071427;28;20397;-71
2023/11/21 06:17:55;;;;;;;51.58;24.48;;;9.70;89.20;;;;;;5070513;28;20480;-71
2023/11/21 06:20:22;;;;;;;52.45;24.60;;;9.70;91.20;;;;;;5069471;28;20427;-71
2023/11/21 06:22:50;;;;;;;52.50;24.27;;;9.80;88.80;;;;;;5070762;28;20361;-71
2023/11/21 06:25:15;;;;;;;54.72;24.83;;;9.80;87.90;;;;;;5063063;28;20401;-70
2023/11/21 06:27:47;;;;;;;53.07;25.67;;;9.80;87.70;;;;;;5056604;28;20435;-72
2023/11/21 06:30:15;;;;;;;54.33;25.48;;;9.80;87.50;;;;;;5059017;28;20681;-72
2023/11/21 06:32:41;;;;;;;54.30;25.88;;;9.80;86.90;;;;;;5051240;28;20404;-73
2023/11/21 06:35:08;;;;;;;52.17;25.50;;;9.80;87.60;;;;;;5052750;28;20786;-71
2023/11/21 06:37:34;;;;;;;56.30;26.45;;;9.80;86.90;;;;;;5054768;28;20393;-72
2023/11/21 06:40:00;;;;;;;58.53;26.80;;;9.70;87.90;;;;;;5053274;28;20815;-73
2023/11/21 06:42:26;;;;;;;58.47;26.67;;;9.70;88.50;;;;;;5059356;28;20415;-72
2023/11/21 06:44:53;;;;;;;59.50;27.60;;;9.60;88.30;;;;;;5057234;28;20386;-73
2023/11/21 06:47:20;;;;;;;57.03;27.23;;;9.60;90.10;;;;;;5054551;28;20787;-72
2023/11/21 06:49:48;;;;;;;52.75;26.92;;;9.60;92.20;;;;;;5053369;28;20412;-72
2023/11/21 06:52:13;;;;;;;50.10;24.90;;;9.90;84.60;;;;;;5054697;28;20872;-72
2023/11/21 06:54:39;;;;;;;50.58;25.33;;;10.00;82.80;;;;;;5053849;28;20491;-71
2023/11/21 06:57:05;;;;;;;53.70;26.27;;;9.90;82.90;;;;;;5055568;28;20400;-73
2023/11/21 06:59:30;;;;;;;52.88;26.23;;;9.90;83.30;;;;;;5054970;28;20443;-72
2023/11/21 07:01:56;;;;;;;58.15;27.20;;;9.80;85.30;;;;;;5056651;28;20404;-74
2023/11/21 07:04:21;;;;;;;51.30;26.27;;;9.80;84.90;;;;;;5055483;28;20747;-72
2023/11/21 07:06:47;;;;;;;53.95;25.75;;;9.80;86.30;;;;;;5055368;28;20445;-72
2023/11/21 07:09:13;;;;;;;56.53;27.27;;;9.80;84.90;;;;;;5056701;28;20390;-73
2023/11/21 07:11:39;;;;;;;62.33;27.73;;;9.80;84.80;;;;;;5054810;28;20389;-71
2023/11/21 07:14:07;;;;;;;54.10;27.70;;;9.70;86.60;;;;;;5053442;28;20488;-72
2023/11/21 07:16:39;;;;;;;56.35;25.42;;;9.70;86.60;;;;;;5052731;28;20464;-72
2023/11/21 07:19:08;;;;;;;57.05;26.00;;;9.70;87.10;;;;;;5052336;28;20888;-70
2023/11/21 07:21:34;;;;;;;54.97;24.92;;;9.70;88.30;;;;;;5052531;28;20865;-72
2023/11/21 07:24:01;;;;;;;54.90;25.20;;;9.70;87.70;;;;;;5053180;28;20389;-72
2023/11/21 07:26:27;;;;;;;52.90;24.23;;;9.70;87.70;;;;;;5052570;28;20476;-71
2023/11/21 07:28:53;;;;;;;52.05;23.98;;;9.70;87.30;;;;;;5053155;28;20903;-72
2023/11/21 07:31:19;;;;;;;56.13;24.30;;;9.70;86.60;;;;;;5052601;28;20389;-70
2023/11/21 07:33:47;;;;;;;47.08;22.63;;;9.60;88.20;;;;;;5052495;28;20393;-71
2023/11/21 07:36:13;;;;;;;45.95;22.60;;;9.60;89.50;;;;;;5052706;28;20488;-72
2023/11/21 07:38:39;;;;;;;48.37;22.17;;;9.70;89.30;;;;;;5052081;28;20381;-72
2023/11/21 07:41:07;;;;;;;48.15;23.42;;;9.70;90.60;;;;;;5052335;28;20407;-71
2023/11/21 07:43:35;;;;;;;51.67;23.67;;;9.70;88.90;;;;;;5067882;28;20388;-70
2023/11/21 07:46:04;;;;;;;47.75;23.52;;;9.60;93.00;;;;;;5071997;28;20874;-73
2023/11/21 07:48:33;;;;;;;45.72;22.92;;;9.80;89.60;;;;;;5073280;28;20391;-72
2023/11/21 07:50:59;;;;;;;47.60;23.30;;;9.90;85.90;;;;;;5072892;28;20455;-71
2023/11/21 07:53:34;;;;;;;49.03;23.60;;;10.00;84.90;;;;;;5072284;28;20395;-72
2023/11/21 07:56:04;;;;;;;49.00;24.95;;;10.00;81.70;;;;;;5072087;28;20398;-71
2023/11/21 07:58:30;;;;;;;55.70;25.73;;;9.90;82.40;;;;;;5073580;28;20383;-71
2023/11/21 08:00:56;;;;;;;54.53;25.48;;;9.90;83.60;;;;;;5079630;28;20406;-72
2023/11/21 08:03:23;;;;;;;55.90;26.90;;;9.90;84.30;;;;;;5083515;28;20418;-71
2023/11/21 08:05:49;;;;;;;59.25;26.40;;;9.80;85.80;;;;;;5080655;28;20392;-71
2023/11/21 08:08:15;;;;;;;72.30;29.25;;;9.80;84.60;;;;;;5067840;28;20398;-71
2023/11/21 08:10:42;;;;;;;61.85;28.15;;;9.80;85.70;;;;;;5077307;28;20898;-72
2023/11/21 08:13:09;;;;;;;60.28;27.58;;;9.80;87.30;;;;;;5087763;22;20395;-72
2023/11/21 08:15:36;;;;;;;65.43;28.57;;;9.90;89.20;;;;;;5084299;28;20386;-73
2023/11/21 08:18:02;;;;;;;69.60;30.15;;;10.10;83.30;;;;;;5090533;28;20542;-73
2023/11/21 08:20:28;;;;;;;67.28;28.00;;;10.20;82.10;;;;;;5087031;28;20954;-73
2023/11/21 08:22:56;;;;;;;67.97;31.67;;;10.20;82.00;;;;;;5088494;28;20390;-73
2023/11/21 08:25:22;;;;;;;71.80;32.53;;;10.40;82.20;;;;;;5091307;28;20511;-72
2023/11/21 08:27:47;;;;;;;77.57;31.87;;;10.40;84.30;;;;;;5090735;28;20406;-72
2023/11/21 08:30:14;;;;;;;73.40;31.20;;;10.60;81.30;;;;;;5090693;28;20381;-71
2023/11/21 08:32:40;;;;;;;65.25;29.10;;;10.70;78.30;;;;;;5077944;28;20403;-72
2023/11/21 08:35:07;;;;;;;63.88;28.75;;;10.50;77.40;;;;;;5065348;28;20504;-72
2023/11/21 08:37:37;;;;;;;61.72;29.08;;;10.40;80.90;;;;;;5066568;28;20638;-73
2023/11/21 08:40:09;;;;;;;64.75;29.73;;;10.50;81.60;;;;;;5068550;28;21151;-73
2023/11/21 08:42:35;;;;;;;62.03;28.92;;;10.50;81.70;;;;;;5067202;28;20383;-73
2023/11/21 08:45:00;;;;;;;69.27;29.67;;;10.50;82.20;;;;;;5062966;28;20416;-73
2023/11/21 08:47:26;;;;;;;78.07;31.67;;;10.60;80.90;;;;;;5049875;28;20500;-72
2023/11/21 08:49:54;;;;;;;76.67;32.73;;;10.60;78.10;;;;;;5050019;28;20401;-73
2023/11/21 08:52:23;;;;;;;80.05;32.10;;;10.50;80.60;;;;;;5066515;28;20397;-72
2023/11/21 08:54:55;;;;;;;79.03;31.70;;;10.50;81.70;;;;;;5061640;28;20439;-73
2023/11/21 08:57:22;;;;;;;64.53;29.33;;;10.60;78.30;;;;;;5081561;28;20389;-73
2023/11/21 08:59:47;;;;;;;75.65;32.17;;;10.50;80.60;;;;;;5083343;28;20503;-72
2023/11/21 09:02:13;;;;;;;74.53;30.42;;;10.60;76.50;;;;;;5060903;28;20505;-72
2023/11/21 09:04:38;;;;;;;75.32;31.77;;;10.50;78.30;;;;;;5050154;28;20377;-73
2023/11/21 09:07:04;;;;;;;74.72;32.38;;;10.60;80.10;;;;;;5078690;28;20858;-72
2023/11/21 09:09:29;;;;;;;75.60;31.10;;;10.50;80.80;;;;;;5088773;28;20794;-72
2023/11/21 09:11:55;;;;;;;71.30;30.27;;;10.70;79.80;;;;;;5088833;28;20465;-72
2023/11/21 09:14:21;;;;;;;73.40;32.23;;;11.00;72.50;;;;;;5074190;28;20399;-72
2023/11/21 09:16:46;;;;;;;80.23;33.07;;;11.00;71.30;;;;;;5068565;28;20447;-72
2023/11/21 09:19:14;;;;;;;71.53;32.30;;;10.90;73.10;;;;;;5072617;28;20412;-72
2023/11/21 09:21:39;;;;;;;70.10;29.48;;;10.80;74.30;;;;;;5068325;28;20981;-73
2023/11/21 09:24:05;;;;;;;76.67;31.37;;;10.80;75.30;;;;;;5068543;28;20423;-72
2023/11/21 09:26:31;;;;;;;74.05;31.65;;;10.80;76.40;;;;;;5062472;28;20399;-72
2023/11/21 09:28:56;;;;;;;71.47;31.60;;;10.80;74.70;;;;;;5066614;28;20440;-72
2023/11/21 09:31:23;;;;;;;72.40;30.70;;;10.80;74.60;;;;;;5068420;28;20842;-72
2023/11/21 09:33:49;;;;;;;72.40;31.38;;;10.80;75.70;;;;;;5068650;28;20468;-72
2023/11/21 09:36:14;;;;;;;64.80;30.27;;;10.80;77.00;;;;;;5073731;28;20893;-73
2023/11/21 09:38:41;;;;;;;67.53;30.20;;;11.30;67.80;;;;;;5066502;28;20758;-72
2023/11/21 09:41:17;;;;;;;74.15;31.65;;;11.50;64.00;;;;;;5068525;28;20432;-72
2023/11/21 09:43:46;;;;;;;75.05;30.85;;;11.30;66.20;;;;;;5048779;28;20404;-72
2023/11/21 09:46:19;;;;;;;80.68;33.53;;;11.20;69.30;;;;;;5046685;28;20918;-72
2023/11/21 09:48:48;;;;;;;81.03;32.80;;;11.40;66.10;;;;;;5048628;28;20396;-72
2023/11/21 09:51:16;;;;;;;81.28;33.42;;;11.40;63.60;;;;;;5051841;28;20518;-72
2023/11/21 09:53:45;;;;;;;69.47;32.60;;;11.30;65.10;;;;;;5064345;28;20970;-72
2023/11/21 09:56:10;;;;;;;79.85;35.00;;;11.20;67.70;;;;;;5077866;28;20386;-73
2023/11/21 09:58:36;;;;;;;76.80;33.83;;;11.20;68.30;;;;;;5084139;28;20423;-73
2023/11/21 10:01:03;;;;;;;80.35;34.45;;;11.10;70.20;;;;;;5063850;28;20449;-71
2023/11/21 10:03:29;;;;;;;74.88;34.72;;;11.20;72.00;;;;;;5070925;28;20401;-72
2023/11/21 10:06:00;;;;;;;77.88;33.92;;;11.40;67.40;;;;;;5071204;28;20378;-72
2023/11/21 10:08:28;;;;;;;72.88;33.97;;;11.40;67.20;;;;;;5067223;28;20423;-72
2023/11/21 10:10:55;;;;;;;86.88;36.15;;;11.60;65.20;;;;;;5069185;28;20421;-72
2023/11/21 10:13:20;;;;;;;86.00;36.28;;;11.40;66.00;;;;;;5063890;28;20399;-72
2023/11/21 10:15:51;;;;;;;76.73;35.03;;;11.40;65.90;;;;;;5055875;28;20516;-76
2023/11/21 10:18:17;;;;;;;73.40;33.33;;;11.60;65.80;;;;;;5058922;28;20401;-76
2023/11/21 10:20:44;;;;;;;84.00;34.75;;;11.60;66.20;;;;;;5064422;28;20413;-73
2023/11/21 10:23:11;;;;;;;77.40;35.60;;;11.50;67.50;;;;;;5073162;28;20391;-73
2023/11/21 10:25:37;;;;;;;81.32;34.25;;;11.50;69.20;;;;;;5058909;28;20439;-73
2023/11/21 10:28:06;;;;;;;82.82;34.40;;;11.40;69.00;;;;;;5073243;28;20691;-73
2023/11/21 10:30:40;;;;;;;79.88;35.53;;;11.30;70.30;;;;;;5066276;28;20389;-72
2023/11/21 10:33:06;;;;;;;87.60;37.85;;;11.20;71.20;;;;;;5056709;28;20400;-71
2023/11/21 10:35:54;;;;;;;79.75;35.05;;;11.20;70.90;;;;;;5053301;28;20744;-72
2023/11/21 10:38:24;;;;;;;94.93;39.10;;;11.10;72.40;;;;;;5053349;28;20393;-72
2023/11/21 10:40:50;;;;;;;85.00;36.58;;;11.60;65.70;;;;;;5056012;28;20502;-77
2023/11/21 10:43:17;;;;;;;96.90;39.78;;;11.60;64.90;;;;;;5056843;28;20477;-73
2023/11/21 10:45:43;;;;;;;102.88;40.40;;;11.30;65.60;;;;;;5075793;28;20727;-73
2023/11/21 10:48:15;;;;;;;91.20;37.67;;;11.20;68.50;;;;;;5067941;28;20473;-74
2023/11/21 10:50:42;;;;;;;100.53;41.72;;;11.10;71.20;;;;;;5097275;28;20382;-73
2023/11/21 10:53:07;;;;;;;102.78;40.25;;;11.30;70.90;;;;;;5091391;28;20857;-72
2023/11/21 10:55:34;;;;;;;98.43;41.30;;;11.60;65.10;;;;;;5073044;28;20387;-71
2023/11/21 10:58:04;;;;;;;118.25;42.55;;;11.60;64.00;;;;;;5072542;28;20394;-73
2023/11/21 11:00:30;;;;;;;108.93;43.72;;;11.80;60.70;;;;;;5071129;28;20446;-72
2023/11/21 11:02:56;;;;;;;119.28;44.33;;;11.70;62.30;;;;;;5073058;28;20445;-74
2023/11/21 11:05:28;;;;;;;118.53;43.85;;;11.50;63.00;;;;;;5073048;28;20383;-71
2023/11/21 11:08:02;;;;;;;114.65;45.53;;;11.40;64.50;;;;;;5072546;28;20379;-73
2023/11/21 11:10:29;;;;;;;124.03;47.13;;;11.30;66.90;;;;;;5071691;28;20400;-73
2023/11/21 11:12:55;;;;;;;117.88;46.08;;;11.30;67.10;;;;;;5071222;28;20475;-73
2023/11/21 11:15:21;;;;;;;124.27;48.03;;;11.40;68.70;;;;;;5072120;28;20489;-73
2023/11/21 11:17:48;;;;;;;135.50;48.70;;;11.50;66.10;;;;;;5069829;28;20435;-72
2023/11/21 11:20:17;;;;;;;122.85;46.13;;;11.40;64.50;;;;;;5072162;28;20406;-73
2023/11/21 11:23:07;;;;;;;125.28;44.83;;;11.30;65.80;;;;;;5071243;28;20406;-73
2023/11/21 11:26:05;;;;;;;123.55;45.78;;;11.30;67.00;;;;;;5057578;28;20395;-74
2023/11/21 11:28:53;;;;;;;101.75;39.72;;;11.40;67.20;;;;;;5072374;28;20384;-73
2023/11/21 11:31:38;;;;;;;96.55;38.40;;;11.40;64.40;;;;;;5072345;28;20404;-72
2023/11/21 11:34:20;;;;;;;102.30;39.22;;;11.40;64.50;;;;;;5072740;28;20383;-73
2023/11/21 11:36:56;;;;;;;106.97;37.90;;;11.40;64.60;;;;;;5072655;28;20807;-73
2023/11/21 11:39:49;;;;;;;108.75;40.60;;;11.40;65.10;;;;;;5073310;28;20399;-74
2023/11/21 11:42:16;;;;;;;98.38;38.60;;;11.50;65.50;;;;;;5071618;28;20961;-73
2023/11/21 11:44:51;;;;;;;91.10;38.15;;;11.60;64.30;;;;;;5072404;28;20379;-73
2023/11/21 11:47:24;;;;;;;97.75;36.35;;;11.80;63.30;;;;;;5071347;28;20394;-73
2023/11/21 11:50:11;;;;;;;93.70;36.30;;;11.90;61.00;;;;;;5071523;28;20392;-73
2023/11/21 11:52:39;;;;;;;94.82;37.53;;;12.10;59.10;;;;;;5071310;28;20384;-72
2023/11/21 11:55:10;;;;;;;97.20;35.65;;;12.40;58.00;;;;;;5070641;28;20374;-72
2023/11/21 11:57:36;;;;;;;86.05;34.40;;;12.70;54.20;;;;;;5071377;28;20445;-72
2023/11/21 12:00:25;;;;;;;83.13;33.88;;;13.00;53.60;;;;;;5070134;28;20403;-72
2023/11/21 12:03:03;;;;;;;78.40;31.80;;;13.40;50.40;;;;;;5064367;28;20387;-73
2023/11/21 12:05:32;;;;;;;78.87;32.50;;;13.20;48.90;;;;;;5055113;28;20425;-73
2023/11/21 12:08:00;;;;;;;76.80;29.30;;;13.00;51.40;;;;;;5063944;28;20502;-73
2023/11/21 12:10:31;;;;;;;63.47;27.65;;;12.80;52.20;;;;;;5072322;28;20555;-72
2023/11/21 12:12:58;;;;;;;74.28;27.80;;;12.50;53.00;;;;;;5061797;28;20432;-72
2023/11/21 12:15:25;;;;;;;73.85;27.80;;;12.30;55.70;;;;;;5054393;28;20393;-73
2023/11/21 12:17:52;;;;;;;77.35;29.70;;;12.20;56.80;;;;;;5053416;28;20390;-72
2023/11/21 12:20:22;;;;;;;64.93;27.50;;;12.20;58.00;;;;;;5068468;28;20400;-73
2023/11/21 12:22:49;;;;;;;69.55;27.75;;;12.20;57.60;;;;;;5072209;28;20788;-73
2023/11/21 12:25:23;;;;;;;72.65;30.80;;;12.10;57.60;;;;;;5072744;28;20894;-76
2023/11/21 12:27:50;;;;;;;69.47;30.38;;;12.10;58.70;;;;;;5064408;28;20880;-72
2023/11/21 12:30:21;;;;;;;65.05;28.23;;;12.30;58.40;;;;;;5060848;28;20466;-72
2023/11/21 12:32:52;;;;;;;64.80;27.10;;;12.40;56.40;;;;;;5067719;28;20428;-72
2023/11/21 12:35:19;;;;;;;63.00;28.20;;;12.40;55.50;;;;;;5051063;28;20389;-72